createdAt,value
2023-01-15T00:00:59.558Z,4.60
2023-01-15T00:03:26.613Z,4.70
2023-01-15T00:05:53.463Z,4.60
2023-01-15T00:08:20.282Z,4.60
2023-01-15T00:10:47.134Z,4.50
2023-01-15T00:13:14.054Z,4.50
2023-01-15T00:15:40.899Z,4.40
2023-01-15T00:18:07.782Z,4.50
2023-01-15T00:20:34.644Z,4.50
2023-01-15T00:23:01.609Z,4.50
2023-01-15T00:25:46.906Z,4.50
2023-01-15T00:28:14.445Z,4.40
2023-01-15T00:30:42.584Z,4.40
2023-01-15T00:33:09.967Z,4.40
2023-01-15T00:35:36.803Z,4.50
2023-01-15T00:38:03.607Z,4.40
2023-01-15T00:40:30.461Z,4.30
2023-01-15T00:42:57.293Z,4.40
2023-01-15T00:45:24.257Z,4.40
2023-01-15T00:47:51.706Z,4.30
2023-01-15T00:50:18.521Z,4.40
2023-01-15T00:52:45.409Z,4.30
2023-01-15T00:55:12.206Z,4.30
2023-01-15T00:57:38.993Z,4.30
2023-01-15T01:00:06.452Z,4.30
2023-01-15T01:02:33.370Z,4.30
2023-01-15T01:05:00.250Z,4.30
2023-01-15T01:07:27.096Z,4.30
2023-01-15T01:09:53.874Z,4.30
2023-01-15T01:12:21.517Z,4.30
2023-01-15T01:14:48.342Z,4.30
2023-01-15T01:17:15.126Z,4.20
2023-01-15T01:19:42.072Z,4.30
2023-01-15T01:22:08.877Z,4.30
2023-01-15T01:24:35.701Z,4.20
2023-01-15T01:27:02.552Z,4.20
2023-01-15T01:29:29.485Z,4.30
2023-01-15T01:31:56.348Z,4.20
2023-01-15T01:34:23.194Z,4.30
2023-01-15T01:36:49.976Z,4.20
2023-01-15T01:39:17.714Z,4.30
2023-01-15T01:41:45.206Z,4.30
2023-01-15T01:44:30.921Z,4.30
2023-01-15T01:46:57.879Z,4.20
2023-01-15T01:49:24.901Z,4.20
2023-01-15T01:51:57.822Z,4.30
2023-01-15T01:54:25.853Z,4.30
2023-01-15T01:56:53.279Z,4.30
2023-01-15T01:59:20.941Z,4.30
2023-01-15T02:01:48.829Z,4.40
2023-01-15T02:04:16.600Z,4.40
2023-01-15T02:06:43.578Z,4.40
2023-01-15T02:09:10.592Z,4.40
2023-01-15T02:11:37.516Z,4.50
2023-01-15T02:14:07.401Z,4.50
2023-01-15T02:16:37.237Z,4.50
2023-01-15T02:19:16.185Z,4.60
2023-01-15T02:22:13.035Z,4.60
2023-01-15T02:24:39.913Z,4.60
2023-01-15T02:27:17.633Z,4.60
2023-01-15T02:29:56.133Z,4.70
2023-01-15T02:32:43.168Z,4.80
2023-01-15T02:35:15.422Z,4.70
2023-01-15T02:37:45.233Z,4.80
2023-01-15T02:40:13.630Z,4.80
2023-01-15T02:42:41.301Z,4.80
2023-01-15T02:45:09.194Z,4.90
2023-01-15T02:47:36.834Z,4.90
2023-01-15T02:50:06.204Z,4.90
2023-01-15T02:52:35.636Z,4.90
2023-01-15T02:55:14.496Z,4.90
2023-01-15T02:57:41.729Z,4.90
2023-01-15T03:00:11.195Z,5.00
2023-01-15T03:02:42.676Z,4.90
2023-01-15T03:05:11.509Z,5.00
2023-01-15T03:07:44.218Z,4.90
2023-01-15T03:10:11.408Z,5.00
2023-01-15T03:13:04.054Z,5.00
2023-01-15T03:16:00.466Z,4.90
2023-01-15T03:18:28.701Z,5.00
2023-01-15T03:20:58.975Z,4.90
2023-01-15T03:23:27.485Z,5.00
2023-01-15T03:25:54.323Z,5.00
2023-01-15T03:28:26.630Z,5.00
2023-01-15T03:30:53.744Z,4.90
2023-01-15T03:33:20.631Z,4.90
2023-01-15T03:35:59.133Z,4.90
2023-01-15T03:38:28.472Z,5.00
2023-01-15T03:40:55.391Z,5.00
2023-01-15T03:43:41.987Z,5.00
2023-01-15T03:46:19.982Z,5.00
2023-01-15T03:49:08.909Z,5.00
2023-01-15T03:51:49.107Z,5.10
2023-01-15T03:54:21.701Z,5.00
2023-01-15T03:57:01.475Z,5.00
2023-01-15T03:59:35.269Z,5.10
2023-01-15T04:02:04.568Z,5.00
2023-01-15T04:04:32.142Z,5.10
2023-01-15T04:07:00.129Z,5.10
2023-01-15T04:09:27.454Z,5.00
2023-01-15T04:11:54.261Z,4.90
2023-01-15T04:14:21.156Z,5.00
2023-01-15T04:16:47.987Z,5.00
2023-01-15T04:19:14.837Z,5.00
2023-01-15T04:21:41.742Z,4.90
2023-01-15T04:24:08.642Z,5.00
2023-01-15T04:26:35.425Z,5.00
2023-01-15T04:29:02.320Z,5.00
2023-01-15T04:31:29.192Z,5.00
2023-01-15T04:33:55.991Z,5.00
2023-01-15T04:36:22.799Z,5.10
2023-01-15T04:38:49.605Z,5.10
2023-01-15T04:41:35.252Z,5.10
2023-01-15T04:44:07.834Z,5.10
2023-01-15T04:46:34.773Z,5.10
2023-01-15T04:49:02.093Z,5.10
2023-01-15T04:51:28.889Z,5.10
2023-01-15T04:53:55.749Z,5.00
2023-01-15T04:56:22.627Z,5.00
2023-01-15T04:58:49.494Z,5.00
2023-01-15T05:01:17.170Z,5.10
2023-01-15T05:03:44.329Z,5.10
2023-01-15T05:06:11.269Z,5.10
2023-01-15T05:08:38.127Z,5.10
2023-01-15T05:11:05.712Z,5.10
2023-01-15T05:13:33.636Z,5.00
2023-01-15T05:16:10.623Z,5.00
2023-01-15T05:18:37.595Z,5.10
2023-01-15T05:21:04.694Z,5.10
2023-01-15T05:23:31.489Z,5.10
2023-01-15T05:25:58.366Z,5.10
2023-01-15T05:28:25.281Z,5.10
2023-01-15T05:30:52.217Z,5.00
2023-01-15T05:33:19.072Z,5.00
2023-01-15T05:35:45.921Z,5.10
2023-01-15T05:38:12.842Z,5.00
2023-01-15T05:40:39.815Z,5.00
2023-01-15T05:43:06.626Z,5.00
2023-01-15T05:45:35.107Z,5.00
2023-01-15T05:48:01.936Z,4.90
2023-01-15T05:50:29.122Z,4.90
2023-01-15T05:52:55.976Z,4.80
2023-01-15T05:55:22.809Z,4.80
2023-01-15T05:57:49.655Z,4.80
2023-01-15T06:00:16.869Z,4.80
2023-01-15T06:02:43.664Z,4.70
2023-01-15T06:05:10.721Z,4.70
2023-01-15T06:07:37.572Z,4.70
2023-01-15T06:10:04.566Z,4.70
2023-01-15T06:12:32.706Z,4.60
2023-01-15T06:14:59.521Z,4.70
2023-01-15T06:17:26.420Z,4.60
2023-01-15T06:19:53.246Z,4.60
2023-01-15T06:22:20.206Z,4.50
2023-01-15T06:24:47.042Z,4.50
2023-01-15T06:27:13.942Z,4.40
2023-01-15T06:29:40.762Z,4.40
2023-01-15T06:32:07.566Z,4.30
2023-01-15T06:34:34.400Z,4.30
2023-01-15T06:37:01.223Z,4.30
2023-01-15T06:39:28.150Z,4.20
2023-01-15T06:42:13.704Z,4.20
2023-01-15T06:44:58.883Z,4.20
2023-01-15T06:47:25.782Z,4.10
2023-01-15T06:49:54.907Z,4.10
2023-01-15T06:52:22.311Z,4.10
2023-01-15T06:54:49.197Z,4.00
2023-01-15T06:57:16.193Z,4.00
2023-01-15T06:59:43.081Z,3.90
2023-01-15T07:02:10.796Z,3.80
2023-01-15T07:04:37.667Z,3.90
2023-01-15T07:07:04.584Z,3.80
2023-01-15T07:09:31.469Z,3.80
2023-01-15T07:11:58.816Z,3.70
2023-01-15T07:14:26.886Z,3.70
2023-01-15T07:16:53.965Z,3.70
2023-01-15T07:19:20.986Z,3.70
2023-01-15T07:21:47.900Z,3.70
2023-01-15T07:24:15.000Z,3.70
2023-01-15T07:26:42.246Z,3.60
2023-01-15T07:29:09.536Z,3.60
2023-01-15T07:31:36.411Z,3.60
2023-01-15T07:34:03.560Z,3.60
2023-01-15T07:36:30.407Z,3.70
2023-01-15T07:38:57.246Z,3.60
2023-01-15T07:41:42.842Z,3.50
2023-01-15T07:44:29.343Z,3.50
2023-01-15T07:47:14.737Z,3.50
2023-01-15T07:49:45.830Z,3.40
2023-01-15T07:52:18.702Z,3.40
2023-01-15T07:54:46.012Z,3.40
2023-01-15T07:57:13.873Z,3.30
2023-01-15T07:59:41.109Z,3.30
2023-01-15T08:02:08.062Z,3.30
2023-01-15T08:04:35.144Z,3.30
2023-01-15T08:07:02.752Z,3.30
2023-01-15T08:09:30.128Z,3.30
2023-01-15T08:12:17.632Z,3.30
2023-01-15T08:15:03.178Z,3.30
2023-01-15T08:17:30.241Z,3.30
2023-01-15T08:19:57.481Z,3.30
2023-01-15T08:22:24.360Z,3.40
2023-01-15T08:24:51.236Z,3.40
2023-01-15T08:27:18.191Z,3.30
2023-01-15T08:29:45.051Z,3.40
2023-01-15T08:32:11.974Z,3.40
2023-01-15T08:34:39.523Z,3.40
2023-01-15T08:37:06.584Z,3.40
2023-01-15T08:39:33.822Z,3.40
2023-01-15T08:42:00.701Z,3.40
2023-01-15T08:44:27.744Z,3.40
2023-01-15T08:46:54.590Z,3.40
2023-01-15T08:49:21.457Z,3.40
2023-01-15T08:51:51.733Z,3.40
2023-01-15T08:54:19.914Z,3.30
2023-01-15T08:56:47.128Z,3.40
2023-01-15T08:59:14.217Z,3.30
2023-01-15T09:01:41.339Z,3.30
2023-01-15T09:04:09.572Z,3.30
2023-01-15T09:06:36.434Z,3.30
2023-01-15T09:09:03.317Z,3.30
2023-01-15T09:11:30.169Z,3.20
2023-01-15T09:13:57.042Z,3.30
2023-01-15T09:16:23.982Z,3.30
2023-01-15T09:18:50.901Z,3.30
2023-01-15T09:21:17.788Z,3.30
2023-01-15T09:23:44.652Z,3.30
2023-01-15T09:26:25.110Z,3.30
2023-01-15T09:28:52.139Z,3.30
2023-01-15T09:31:18.979Z,3.30
2023-01-15T09:33:45.874Z,3.30
2023-01-15T09:36:19.308Z,3.40
2023-01-15T09:38:46.248Z,3.30
2023-01-15T09:41:33.719Z,3.30
2023-01-15T09:44:20.944Z,3.30
2023-01-15T09:46:57.985Z,3.30
2023-01-15T09:49:43.631Z,3.30
2023-01-15T09:52:36.899Z,3.30
2023-01-15T09:55:12.846Z,3.30
2023-01-15T09:57:40.635Z,3.30
2023-01-15T10:00:12.676Z,3.40
2023-01-15T10:02:45.535Z,3.40
2023-01-15T10:05:21.587Z,3.50
2023-01-15T10:07:51.497Z,3.50
2023-01-15T10:10:20.031Z,3.60
2023-01-15T10:12:48.357Z,3.70
2023-01-15T10:15:15.211Z,3.70
2023-01-15T10:17:43.519Z,3.70
2023-01-15T10:20:29.192Z,3.70
2023-01-15T10:22:57.691Z,3.70
2023-01-15T10:25:28.127Z,3.60
2023-01-15T10:27:58.142Z,3.70
2023-01-15T10:30:25.015Z,3.60
